Time;durP1;ratioP1;P1;durP2;ratioP2;P2;SDS_P1;SDS_P2;PMS_P1;PMS_P2;Temp;Humidity;BMP_temperature;BMP_pressure;BME280_temperature;BME280_humidity;BME280_pressure;Samples;Min_cycle;Max_cycle;Signal;HPM_P1;HPM_P2
2021/11/04 00:00:38;;;;;;;162.05;33.00;;;6.80;99.90;;;5.16;100.00;99900.50;4998429;28;24484;-82
2021/11/04 00:03:11;;;;;;;146.95;34.05;;;6.80;99.90;;;5.13;100.00;99897.09;4967864;28;20082;-83
2021/11/04 00:05:37;;;;;;;153.40;33.63;;;6.80;99.90;;;5.12;100.00;99892.81;4981625;28;20080;-82
2021/11/04 00:08:04;;;;;;;145.98;33.28;;;6.80;99.90;;;5.07;100.00;99888.66;4958826;28;20068;-82
2021/11/04 00:10:37;;;;;;;147.50;33.05;;;6.70;99.90;;;5.09;100.00;99882.47;5004245;28;20079;-82
2021/11/04 00:13:04;;;;;;;117.88;30.35;;;6.70;99.90;;;5.06;100.00;99885.19;4972608;28;20064;-82
2021/11/04 00:15:30;;;;;;;138.13;32.15;;;6.80;99.90;;;5.08;100.00;99885.16;4979662;28;20070;-82
2021/11/04 00:17:58;;;;;;;141.32;34.10;;;6.70;99.90;;;5.03;100.00;99885.31;4923469;28;20108;-82
2021/11/04 00:20:28;;;;;;;141.27;34.53;;;6.70;99.90;;;5.04;100.00;99888.78;4976372;28;20071;-82
2021/11/04 00:22:55;;;;;;;119.70;30.73;;;6.70;99.90;;;5.07;100.00;99897.31;4949929;28;20484;-82
2021/11/04 00:25:21;;;;;;;129.60;33.22;;;6.70;99.90;;;5.07;100.00;99906.91;4940825;28;20060;-82
2021/11/04 00:27:49;;;;;;;118.53;32.15;;;6.70;99.90;;;5.05;100.00;99906.97;4992253;28;20056;-82
2021/11/04 00:30:20;;;;;;;128.18;31.65;;;6.70;99.90;;;5.08;100.00;99916.47;4951359;28;20065;-82
2021/11/04 00:32:50;;;;;;;120.90;33.47;;;6.70;99.90;;;5.05;100.00;99912.19;4997712;28;20084;-82
2021/11/04 00:35:17;;;;;;;144.35;34.45;;;6.70;99.90;;;5.10;100.00;99925.09;4997902;28;20075;-82
2021/11/04 00:37:49;;;;;;;120.00;30.48;;;6.70;99.90;;;5.01;100.00;99915.84;4967704;28;20058;-82
2021/11/04 00:40:21;;;;;;;125.05;33.10;;;6.70;99.90;;;5.12;100.00;99924.13;4993199;28;20581;-82
2021/11/04 00:42:49;;;;;;;137.20;33.47;;;6.70;99.90;;;5.01;100.00;99905.41;5010314;28;20519;-82
2021/11/04 00:45:21;;;;;;;137.02;32.17;;;6.70;99.90;;;4.97;100.00;99897.72;4996472;28;20066;-82
2021/11/04 00:47:49;;;;;;;124.25;32.70;;;6.60;99.90;;;4.95;100.00;99900.41;4975218;28;20076;-82
2021/11/04 00:50:23;;;;;;;113.28;30.00;;;6.60;99.90;;;4.96;100.00;99896.88;4960496;28;20141;-82
2021/11/04 00:52:50;;;;;;;126.55;31.08;;;6.60;99.90;;;4.91;100.00;99883.16;4990475;28;20090;-82
2021/11/04 00:55:16;;;;;;;122.60;31.63;;;6.50;99.90;;;4.85;100.00;99872.94;4981638;28;20058;-82
2021/11/04 00:57:48;;;;;;;111.38;30.33;;;8.00;99.90;;;4.83;100.00;99869.53;4962693;28;20068;-82
2021/11/04 01:00:14;;;;;;;112.57;29.00;;;6.50;99.90;;;4.84;100.00;99868.66;4965362;28;20118;-82
2021/11/04 01:02:41;;;;;;;102.90;28.40;;;6.50;99.90;;;4.93;100.00;99871.75;4984417;28;20051;-82
2021/11/04 01:05:08;;;;;;;103.07;28.08;;;6.50;99.90;;;4.87;100.00;99855.47;4993402;28;20070;-82
2021/11/04 01:07:34;;;;;;;89.20;28.38;;;6.60;99.90;;;4.91;100.00;99854.47;4999482;28;20509;-82
2021/11/04 01:10:07;;;;;;;94.07;28.00;;;6.60;99.90;;;4.89;100.00;99845.84;4996121;28;20141;-82
2021/11/04 01:12:33;;;;;;;89.40;26.13;;;6.50;99.90;;;4.89;100.00;99843.25;4945336;28;20069;-82
2021/11/04 01:15:00;;;;;;;82.10;25.55;;;6.60;99.90;;;4.95;100.00;99856.06;4962086;28;20067;-82
2021/11/04 01:17:26;;;;;;;87.70;27.23;;;6.60;99.90;;;4.90;100.00;99839.69;5015512;28;20090;-83
2021/11/04 01:19:56;;;;;;;89.30;27.95;;;6.60;99.90;;;4.92;100.00;99828.34;4962781;28;20551;-82
2021/11/04 01:22:22;;;;;;;81.22;25.83;;;6.60;99.90;;;4.90;100.00;99824.94;4995327;28;20097;-82
2021/11/04 01:24:49;;;;;;;76.50;25.42;;;;;;;4.93;100.00;99824.81;4971434;28;20073;-82
2021/11/04 01:27:15;;;;;;;79.03;25.42;;;6.60;99.90;;;4.91;100.00;99818.78;4998602;28;24830;-82
2021/11/04 01:29:41;;;;;;;68.43;23.50;;;6.60;99.90;;;4.90;100.00;99811.88;4970866;28;20063;-82
2021/11/04 01:32:10;;;;;;;88.07;26.27;;;6.60;99.90;;;4.88;100.00;99803.25;5026881;28;20084;-82
2021/11/04 01:34:38;;;;;;;90.57;26.30;;;6.60;99.90;;;4.91;100.00;99799.69;4942601;28;20066;-83
2021/11/04 01:37:05;;;;;;;89.28;26.23;;;6.60;99.90;;;4.96;100.00;99800.34;4956822;28;20109;-82
2021/11/04 01:39:30;;;;;;;77.03;25.40;;;6.60;99.90;;;5.01;100.00;99808.88;4978631;28;20165;-82
2021/11/04 01:41:56;;;;;;;78.03;26.20;;;6.70;99.90;;;5.13;100.00;99821.41;4984956;28;20554;-84
2021/11/04 01:44:31;;;;;;;83.78;26.20;;;6.80;99.90;;;5.20;100.00;99832.47;4946093;28;20462;-82
2021/11/04 01:46:58;;;;;;;74.15;24.55;;;6.80;99.90;;;5.32;100.00;99847.66;4966678;28;20058;-83
2021/11/04 01:49:24;;;;;;;79.18;26.27;;;6.90;99.90;;;5.35;100.00;99842.31;4952314;28;20071;-82
2021/11/04 01:51:50;;;;;;;72.68;26.00;;;6.90;99.90;;;5.42;100.00;99850.78;5001602;28;20066;-82
2021/11/04 01:54:21;;;;;;;83.15;26.58;;;7.00;99.90;;;5.39;100.00;99843.06;5005964;28;20074;-82
2021/11/04 01:56:48;;;;;;;77.05;25.98;;;7.00;99.90;;;5.42;100.00;99839.47;5003826;28;20063;-83
2021/11/04 01:59:13;;;;;;;89.32;28.48;;;7.00;99.90;;;5.41;100.00;99836.00;5024027;28;20125;-82
2021/11/04 02:01:39;;;;;;;85.40;27.05;;;7.00;99.90;;;5.47;100.00;99824.47;4978058;28;20074;-82
2021/11/04 02:04:19;;;;;;;82.25;26.00;;;7.10;99.90;;;5.48;100.00;99815.72;4985072;28;20075;-83
2021/11/04 02:07:08;;;;;;;77.80;26.45;;;7.00;99.90;;;5.50;100.00;99832.19;4982670;28;20064;-82
2021/11/04 02:10:06;;;;;;;79.35;26.50;;;7.00;99.90;;;5.48;100.00;99829.63;5026386;28;20064;-82
2021/11/04 02:13:04;;;;;;;86.85;27.20;;;7.00;99.90;;;5.51;100.00;99821.69;5019383;28;21056;-83
2021/11/04 02:15:43;;;;;;;74.53;25.60;;;7.10;99.90;;;5.44;100.00;99812.41;4994192;28;20073;-82
2021/11/04 02:18:13;;;;;;;77.47;26.13;;;7.10;99.90;;;5.59;100.00;99828.34;4948205;28;20083;-82
2021/11/04 02:21:26;;;;;;;79.50;27.42;;;7.10;99.90;;;5.64;100.00;99834.25;4982306;28;20065;-82
2021/11/04 02:24:29;;;;;;;74.72;25.13;;;7.20;99.90;;;5.63;100.00;99825.56;4985692;28;20066;-82
2021/11/04 02:26:59;;;;;;;77.65;26.52;;;7.20;99.90;;;5.63;100.00;99824.72;4972561;28;20076;-82
2021/11/04 02:29:29;;;;;;;80.53;26.52;;;7.20;99.90;;;5.57;100.00;99802.28;4973723;28;20142;-82
2021/11/04 02:31:57;;;;;;;71.68;26.65;;;7.20;99.90;;;5.55;100.00;99791.94;4953178;28;20188;-82
2021/11/04 02:34:23;;;;;;;75.03;26.35;;;7.10;99.90;;;5.57;100.00;99794.44;4934373;28;20546;-82
2021/11/04 02:36:50;;;;;;;65.90;25.23;;;7.20;99.90;;;5.61;100.00;99779.53;4968619;28;20144;-82
2021/11/04 02:39:16;;;;;;;71.22;26.83;;;7.20;99.90;;;5.60;100.00;99793.50;4973798;28;22433;-82
2021/11/04 02:41:48;;;;;;;72.60;24.30;;;7.20;99.90;;;5.52;100.00;99776.38;4967741;28;20533;-82
2021/11/04 02:44:15;;;;;;;72.13;26.55;;;7.10;99.90;;;5.54;100.00;99773.69;4975199;28;20134;-82
2021/11/04 02:46:41;;;;;;;71.43;24.33;;;7.10;99.90;;;5.58;100.00;99779.66;4945038;28;20069;-82
2021/11/04 02:49:08;;;;;;;75.78;25.25;;;7.20;99.90;;;5.58;100.00;99777.06;4954230;28;20101;-82
2021/11/04 02:51:45;;;;;;;72.82;25.98;;;7.20;99.90;;;5.58;100.00;99774.44;4952413;28;20612;-82
2021/11/04 02:54:11;;;;;;;73.25;25.48;;;7.10;99.90;;;5.57;100.00;99770.94;4966699;28;20063;-82
2021/11/04 02:56:49;;;;;;;66.35;25.98;;;7.20;99.90;;;5.62;100.00;99771.63;4982574;28;20160;-82
2021/11/04 02:59:26;;;;;;;74.05;26.02;;;7.30;99.90;;;5.66;100.00;99781.03;4997540;28;20487;-82
2021/11/04 03:01:58;;;;;;;70.40;26.23;;;7.30;99.90;;;5.73;100.00;99786.84;4990586;28;20083;-82
2021/11/04 03:04:28;;;;;;;82.07;26.40;;;7.30;99.90;;;5.74;100.00;99788.53;5009987;28;20059;-82
2021/11/04 03:06:54;;;;;;;80.78;26.90;;;7.30;99.90;;;5.81;100.00;99776.06;5038016;28;20063;-81
2021/11/04 03:09:21;;;;;;;80.18;26.40;;;7.30;99.90;;;5.82;100.00;99770.78;5013942;28;20164;-82
2021/11/04 03:11:47;;;;;;;83.28;27.63;;;7.40;99.90;;;5.82;100.00;99767.34;4980167;28;20111;-82
2021/11/04 03:14:15;;;;;;;71.60;25.13;;;7.40;99.90;;;5.92;100.00;99771.25;4944646;28;20574;-82
2021/11/04 03:16:47;;;;;;;74.30;28.40;;;7.40;99.90;;;5.82;100.00;99743.81;5010574;28;20062;-84
2021/11/04 03:19:17;;;;;;;75.25;26.05;;;7.30;99.90;;;5.83;100.00;99746.38;4997335;28;20158;-82
2021/11/04 03:21:54;;;;;;;80.40;28.25;;;7.40;99.90;;;5.84;100.00;99745.44;5010057;28;20058;-82
2021/11/04 03:24:25;;;;;;;79.38;28.50;;;7.40;99.90;;;5.81;100.00;99737.75;5014517;28;20063;-82
2021/11/04 03:26:57;;;;;;;77.28;28.15;;;7.40;99.90;;;5.80;100.00;99738.66;5054556;28;20809;-82
2021/11/04 03:29:36;;;;;;;74.07;27.88;;;7.40;99.90;;;5.78;100.00;99731.81;4993352;28;20060;-82
2021/11/04 03:32:06;;;;;;;74.50;26.33;;;7.40;99.90;;;5.89;100.00;99750.47;4959042;28;20178;-82
2021/11/04 03:34:35;;;;;;;69.53;25.67;;;7.40;99.90;;;5.79;100.00;99731.75;5010017;28;20577;-82
2021/11/04 03:37:05;;;;;;;70.20;26.30;;;7.30;99.90;;;5.73;100.00;99719.78;5023735;28;20073;-82
2021/11/04 03:39:33;;;;;;;76.57;25.40;;;7.30;99.90;;;5.69;100.00;99712.16;4955626;28;20133;-83
2021/11/04 03:42:09;;;;;;;68.93;24.98;;;7.30;99.90;;;5.65;100.00;99718.41;4996344;28;20486;-82
2021/11/04 03:44:37;;;;;;;72.13;25.33;;;7.30;99.90;;;5.70;100.00;99716.44;4973777;28;20505;-83
2021/11/04 03:47:07;;;;;;;67.20;26.30;;;7.40;99.90;;;5.84;100.00;99735.00;5031659;28;20059;-83
2021/11/04 03:49:34;;;;;;;76.90;25.55;;;7.50;99.90;;;5.98;100.00;99741.41;4981507;28;20163;-82
2021/11/04 03:52:00;;;;;;;67.13;25.05;;;7.50;99.90;;;6.02;100.00;99740.38;5011788;28;20076;-82
2021/11/04 03:54:27;;;;;;;71.60;26.45;;;7.60;99.90;;;6.02;100.00;99743.84;5008046;28;20069;-82
2021/11/04 03:57:04;;;;;;;71.18;26.52;;;7.60;99.90;;;6.03;100.00;99729.03;4991343;28;20076;-82
2021/11/04 03:59:30;;;;;;;68.32;24.42;;;7.60;99.90;;;6.11;100.00;99742.59;4959017;28;20127;-82
2021/11/04 04:01:58;;;;;;;68.10;24.25;;;7.60;99.90;;;6.13;100.00;99732.91;5012498;28;20050;-82
2021/11/04 04:04:29;;;;;;;75.68;26.08;;;7.70;99.90;;;6.12;100.00;99718.16;4984525;28;21161;-82
2021/11/04 04:06:55;;;;;;;73.78;26.45;;;7.70;99.90;;;6.20;100.00;99726.50;4961933;28;20812;-83
2021/11/04 04:09:23;;;;;;;83.15;25.67;;;7.70;99.90;;;6.21;100.00;99727.34;4974192;28;20121;-82
2021/11/04 04:11:58;;;;;;;72.38;26.75;;;7.80;99.90;;;6.24;100.00;99735.91;4969144;28;20569;-82
2021/11/04 04:14:24;;;;;;;82.18;27.17;;;7.80;99.90;;;6.28;100.00;99737.44;4947215;28;20440;-82
2021/11/04 04:16:50;;;;;;;77.78;26.40;;;7.80;99.90;;;6.27;100.00;99727.94;4971455;28;20060;-82
2021/11/04 04:19:16;;;;;;;62.58;22.40;;;7.80;99.90;;;6.31;100.00;99720.81;5011535;28;20072;-82
2021/11/04 04:21:47;;;;;;;77.75;27.08;;;7.80;99.90;;;6.37;100.00;99717.88;4998090;28;20055;-82
2021/11/04 04:24:13;;;;;;;77.28;26.52;;;7.90;99.90;;;6.34;100.00;99707.59;4965999;28;20080;-82
2021/11/04 04:26:39;;;;;;;74.63;25.45;;;7.90;99.90;;;6.39;100.00;99716.06;4952095;28;20601;-82
2021/11/04 04:29:05;;;;;;;72.95;25.50;;;8.00;99.90;;;6.42;100.00;99715.94;4977958;28;20609;-82
2021/11/04 04:31:31;;;;;;;88.65;27.55;;;8.00;99.90;;;6.50;100.00;99707.72;4997104;28;20141;-81
2021/11/04 04:33:57;;;;;;;82.85;27.35;;;8.00;99.90;;;6.61;100.00;99721.19;4974493;28;20087;-82
2021/11/04 04:36:29;;;;;;;77.18;26.52;;;8.00;99.90;;;6.56;100.00;99704.81;4981554;28;20091;-82
2021/11/04 04:38:55;;;;;;;73.80;25.90;;;8.00;99.90;;;6.52;100.00;99695.41;4984995;28;20081;-81
2021/11/04 04:41:21;;;;;;;72.63;26.20;;;8.00;99.90;;;6.60;100.00;99690.69;4970255;28;20081;-83
2021/11/04 04:43:47;;;;;;;78.55;26.10;;;8.10;99.90;;;6.57;100.00;99676.00;4993700;28;20069;-81
2021/11/04 04:46:13;;;;;;;81.70;27.33;;;8.10;99.90;;;6.57;100.00;99675.16;4972602;28;20074;-82
2021/11/04 04:48:48;;;;;;;79.97;27.63;;;8.10;99.90;;;6.58;100.00;99667.22;4947993;28;20099;-82
2021/11/04 04:51:15;;;;;;;76.28;26.38;;;8.10;99.90;;;6.63;100.00;99672.25;4983817;28;20121;-82
2021/11/04 04:53:41;;;;;;;85.03;28.73;;;8.10;99.90;;;6.63;100.00;99672.25;4956395;28;20056;-82
2021/11/04 04:56:15;;;;;;;77.65;28.77;;;7.90;99.90;;;6.74;100.00;99684.81;4969346;28;20021;-82
2021/11/04 04:58:41;;;;;;;84.20;28.15;;;8.20;99.90;;;6.72;100.00;99677.03;4985408;28;20255;-82
2021/11/04 05:01:07;;;;;;;85.03;30.02;;;8.20;99.90;;;6.72;100.00;99665.75;4995586;28;20070;-82
2021/11/04 05:03:34;;;;;;;72.30;26.52;;;8.20;99.90;;;6.71;100.00;99671.88;4988197;28;20423;-82
2021/11/04 05:06:02;;;;;;;77.07;25.77;;;8.30;99.90;;;6.82;100.00;99677.44;4984234;28;20539;-82
2021/11/04 05:08:29;;;;;;;65.28;25.17;;;8.30;99.90;;;6.77;100.00;99663.75;4932909;28;20042;-82
2021/11/04 05:10:54;;;;;;;78.88;27.02;;;8.30;99.90;;;6.78;100.00;99655.81;4967515;28;20085;-82
2021/11/04 05:13:20;;;;;;;69.90;26.80;;;8.30;99.90;;;6.83;100.00;99650.38;4958604;28;20150;-83
2021/11/04 05:15:46;;;;;;;77.60;28.73;;;8.30;99.90;;;6.72;100.00;99637.81;5002902;28;20142;-82
2021/11/04 05:18:12;;;;;;;73.35;26.48;;;8.30;99.90;;;6.75;100.00;99635.03;4969151;28;20081;-83
2021/11/04 05:20:44;;;;;;;73.03;26.10;;;8.30;99.90;;;6.75;100.00;99636.81;4970876;28;20686;-82
2021/11/04 05:23:10;;;;;;;68.10;25.52;;;8.30;99.90;;;6.80;100.00;99636.56;4986405;28;20519;-82
2021/11/04 05:25:36;;;;;;;68.68;24.65;;;8.30;99.90;;;6.80;100.00;99644.41;4969725;28;20086;-83
2021/11/04 05:28:02;;;;;;;68.57;25.30;;;8.30;99.90;;;6.73;100.00;99642.09;4968242;28;20116;-83
2021/11/04 05:30:28;;;;;;;64.35;23.83;;;8.30;99.90;;;6.78;100.00;99647.97;4980356;28;20051;-83
2021/11/04 05:32:54;;;;;;;65.65;26.00;;;8.30;99.90;;;6.82;100.00;99660.91;4967399;28;20388;-82
2021/11/04 05:35:29;;;;;;;65.82;24.23;;;8.30;99.90;;;6.83;100.00;99655.59;4997531;28;20111;-82
2021/11/04 05:37:55;;;;;;;64.28;24.38;;;;;;;6.85;100.00;99645.91;4995770;28;20071;-82
2021/11/04 05:40:21;;;;;;;61.17;23.42;;;8.40;99.90;;;6.87;100.00;99648.44;4966781;28;20493;-82
2021/11/04 05:42:54;;;;;;;51.47;23.92;;;8.40;99.90;;;6.85;100.00;99651.13;4935481;28;20130;-82
2021/11/04 05:45:20;;;;;;;63.17;24.35;;;8.40;99.90;;;6.87;100.00;99645.81;4987744;28;20311;-81
2021/11/04 05:47:46;;;;;;;61.22;23.48;;;8.40;99.90;;;6.86;100.00;99644.13;4986007;28;20055;-82
2021/11/04 05:50:12;;;;;;;53.22;22.67;;;8.50;99.90;;;6.96;100.00;99666.31;4952631;28;20058;-84
2021/11/04 05:52:40;;;;;;;59.03;23.33;;;8.50;99.90;;;6.98;100.00;99660.09;4963184;28;20081;-83
2021/11/04 05:55:10;;;;;;;62.55;22.95;;;8.50;99.90;;;7.09;100.00;99669.19;4975850;28;20066;-82
2021/11/04 05:57:36;;;;;;;66.00;23.73;;;8.60;99.90;;;7.07;100.00;99663.19;4988850;28;20128;-82
2021/11/04 06:00:04;;;;;;;63.53;22.33;;;8.60;99.90;;;7.08;100.00;99657.00;5034530;28;20067;-82
2021/11/04 06:02:30;;;;;;;55.70;23.50;;;8.60;99.90;;;7.05;100.00;99644.94;5027038;28;20547;-82
2021/11/04 06:05:04;;;;;;;64.78;23.88;;;8.60;99.90;;;7.03;100.00;99633.69;4948102;28;20055;-82
2021/11/04 06:07:30;;;;;;;56.80;21.33;;;8.60;99.90;;;7.13;100.00;99649.78;4961168;28;20137;-82
2021/11/04 06:09:56;;;;;;;57.78;22.45;;;8.60;99.90;;;7.15;100.00;99640.94;4988822;28;20062;-82
2021/11/04 06:12:22;;;;;;;55.45;22.33;;;8.70;99.90;;;7.22;100.00;99643.25;4969315;28;20098;-82
2021/11/04 06:14:57;;;;;;;60.80;22.42;;;8.70;99.90;;;7.19;100.00;99623.28;4975065;28;20527;-82
2021/11/04 06:17:23;;;;;;;61.65;21.52;;;8.70;99.90;;;7.24;100.00;99623.09;4959755;28;20154;-82
2021/11/04 06:19:49;;;;;;;52.38;20.50;;;8.70;99.90;;;7.21;100.00;99610.97;4980012;28;20111;-82
2021/11/04 06:22:20;;;;;;;58.35;21.45;;;8.70;99.90;;;7.27;100.00;99618.50;4953417;28;20053;-82
2021/11/04 06:24:46;;;;;;;48.38;20.02;;;8.80;99.90;;;7.21;100.00;99610.97;4972041;28;20051;-83
2021/11/04 06:27:12;;;;;;;58.92;21.65;;;8.80;99.90;;;7.23;100.00;99608.28;4955320;28;20029;-83
2021/11/04 06:29:38;;;;;;;51.38;20.75;;;8.80;99.90;;;7.30;100.00;99609.66;4943348;28;20188;-83
2021/11/04 06:32:04;;;;;;;47.45;20.23;;;8.80;99.90;;;7.32;100.00;99613.03;4983535;28;20127;-82
2021/11/04 06:34:30;;;;;;;45.78;18.50;;;8.80;99.90;;;7.46;100.00;99622.84;4946208;28;20597;-82
2021/11/04 06:37:01;;;;;;;51.17;19.40;;;8.90;99.90;;;7.32;100.00;99603.44;4971732;28;20059;-83
2021/11/04 06:39:28;;;;;;;44.60;18.75;;;8.80;99.90;;;7.37;100.00;99609.28;4972273;28;20640;-81
2021/11/04 06:41:55;;;;;;;47.53;18.13;;;8.80;99.90;;;7.36;100.00;99604.97;4998205;28;20063;-80
2021/11/04 06:44:21;;;;;;;48.88;20.52;;;8.90;99.90;;;7.35;100.00;99595.41;4990286;28;20058;-80
2021/11/04 06:46:55;;;;;;;51.83;19.40;;;8.90;99.90;;;7.46;100.00;99600.09;4980561;28;20062;-82
2021/11/04 06:49:27;;;;;;;49.13;19.20;;;9.00;99.90;;;7.45;100.00;99594.94;5024531;28;20070;-80
2021/11/04 06:51:58;;;;;;;43.20;18.52;;;8.90;99.90;;;7.40;100.00;99588.16;4993941;28;20083;-81
2021/11/04 06:54:26;;;;;;;45.85;18.20;;;8.90;99.90;;;7.46;100.00;99589.63;4973862;28;20064;-80
2021/11/04 06:57:04;;;;;;;52.38;19.83;;;9.00;99.90;;;7.46;100.00;99587.00;4962783;28;20734;-80
2021/11/04 06:59:35;;;;;;;43.95;17.92;;;9.00;99.90;;;7.52;100.00;99594.53;4996087;28;20122;-81
2021/11/04 07:02:04;;;;;;;43.03;17.83;;;9.10;99.90;;;7.54;100.00;99602.34;4989632;28;20529;-81
2021/11/04 07:04:36;;;;;;;39.15;17.55;;;9.10;99.90;;;7.60;100.00;99610.72;4995151;28;20046;-83
2021/11/04 07:09:42;;;;;;;45.20;19.00;;;9.10;99.90;;;7.62;100.00;99604.53;5012342;28;20064;-82
2021/11/04 07:12:16;;;;;;;43.47;19.25;;;9.20;99.90;;;7.62;100.00;99589.66;4989742;28;20062;-80
2021/11/04 07:14:44;;;;;;;48.05;18.85;;;9.20;99.90;;;7.69;100.00;99598.03;4949822;28;20064;-80
2021/11/04 07:17:18;;;;;;;51.63;20.15;;;9.10;99.90;;;7.69;100.00;99585.81;5015037;28;20454;-80
2021/11/04 07:19:48;;;;;;;39.90;17.50;;;9.20;99.90;;;7.72;100.00;99580.38;4971382;28;20059;-80
2021/11/04 07:22:50;;;;;;;45.08;17.83;;;9.30;99.90;;;7.87;100.00;99588.38;4972298;28;20047;-83
2021/11/04 07:25:23;;;;;;;54.47;18.00;;;9.40;99.90;;;7.84;100.00;99557.06;4961947;28;21054;-80
2021/11/04 07:28:13;;;;;;;42.60;17.70;;;9.30;99.90;;;7.82;100.00;99559.78;4979785;28;20061;-82
2021/11/04 07:30:41;;;;;;;44.17;19.10;;;9.40;99.90;;;7.87;100.00;99559.53;5037008;28;20074;-80
2021/11/04 07:33:09;;;;;;;41.47;16.73;;;9.40;99.90;;;7.85;100.00;99551.75;4990097;28;20594;-79
2021/11/04 07:35:40;;;;;;;43.45;17.23;;;9.40;99.90;;;7.88;100.00;99548.13;4962961;28;20061;-80
2021/11/04 07:38:11;;;;;;;42.55;18.40;;;9.40;99.90;;;7.85;100.00;99528.16;4980669;28;20067;-79
2021/11/04 07:40:38;;;;;;;39.90;16.45;;;9.40;99.90;;;7.88;100.00;99525.38;5006252;28;20082;-80
2021/11/04 07:43:08;;;;;;;40.50;15.73;;;9.40;99.90;;;7.88;100.00;99522.75;4975656;28;20052;-80
2021/11/04 07:45:35;;;;;;;46.17;18.73;;;9.40;99.90;;;7.90;100.00;99528.75;5005123;28;20451;-80
2021/11/04 07:48:02;;;;;;;43.20;16.92;;;9.40;99.90;;;7.90;100.00;99510.41;5005787;28;20062;-79
2021/11/04 07:50:40;;;;;;;41.60;16.92;;;9.40;99.90;;;7.92;100.00;99524.28;4961085;28;20070;-80
2021/11/04 07:53:06;;;;;;;48.85;16.52;;;9.50;99.90;;;8.00;100.00;99518.63;4976482;28;20066;-80
2021/11/04 07:55:32;;;;;;;40.78;15.80;;;9.50;99.90;;;7.97;100.00;99513.56;5010348;28;20154;-80
2021/11/04 07:57:58;;;;;;;43.28;16.42;;;9.60;99.90;;;8.06;100.00;99530.56;4958097;28;20068;-79
2021/11/04 08:00:29;;;;;;;43.13;18.23;;;9.60;99.90;;;8.01;100.00;99509.81;4994489;28;20142;-83
2021/11/04 08:02:56;;;;;;;40.38;16.45;;;9.60;99.90;;;8.01;100.00;99497.56;4965398;28;20066;-80
2021/11/04 08:05:24;;;;;;;43.40;17.38;;;9.60;99.90;;;8.09;100.00;99512.88;4952882;28;20088;-80
2021/11/04 08:07:50;;;;;;;37.50;16.05;;;9.60;99.90;;;8.20;100.00;99509.63;4948726;28;20063;-80
2021/11/04 08:10:20;;;;;;;43.20;16.63;;;9.70;99.90;;;8.14;100.00;99492.50;4980363;28;20057;-80
2021/11/04 08:12:47;;;;;;;37.63;16.60;;;9.70;99.90;;;8.20;100.00;99497.38;4988122;28;20076;-80
2021/11/04 08:15:14;;;;;;;36.20;16.52;;;9.70;99.90;;;8.20;100.00;99488.66;5024338;28;20080;-81
2021/11/04 08:17:41;;;;;;;39.83;16.00;;;11.70;99.90;;;8.28;100.00;99493.50;4975160;28;20527;-79
2021/11/04 08:20:13;;;;;;;30.58;14.68;;;9.80;99.90;;;8.28;100.00;99493.50;4981153;28;20052;-79
2021/11/04 08:22:40;;;;;;;32.20;14.23;;;9.80;99.90;;;8.29;100.00;99485.50;4977372;28;20086;-80
2021/11/04 08:25:07;;;;;;;39.53;15.48;;;9.80;99.90;;;8.36;100.00;99497.38;4977474;28;20116;-80
2021/11/04 08:27:33;;;;;;;33.35;15.77;;;9.80;99.90;;;8.26;100.00;99493.56;4952595;28;20067;-79
2021/11/04 08:30:04;;;;;;;33.42;14.10;;;9.70;99.90;;;8.30;100.00;99494.25;4965945;28;20411;-80
2021/11/04 08:32:31;;;;;;;32.25;14.85;;;9.70;99.90;;;8.26;100.00;99472.59;4964592;28;20151;-80
2021/11/04 08:34:57;;;;;;;31.50;14.60;;;9.70;99.90;;;8.21;100.00;99466.78;4970516;28;20603;-80
2021/11/04 08:37:23;;;;;;;31.70;12.93;;;9.70;99.90;;;8.17;100.00;99458.22;5009281;28;20073;-80
2021/11/04 08:39:49;;;;;;;35.28;15.63;;;9.70;99.90;;;8.26;100.00;99463.88;4974707;28;20062;-80
2021/11/04 08:42:16;;;;;;;32.63;15.77;;;;;;;8.27;100.00;99463.81;5015507;28;20073;-80
2021/11/04 08:44:44;;;;;;;29.08;11.38;;;9.70;99.90;;;8.26;100.00;99454.22;5017421;28;20122;-80
2021/11/04 08:47:11;;;;;;;31.63;14.77;;;9.90;99.90;;;8.22;100.00;99448.31;5045748;28;20092;-80
2021/11/04 08:49:37;;;;;;;34.30;15.95;;;9.70;99.90;;;8.22;100.00;99444.84;5011024;28;20110;-80
2021/11/04 08:52:04;;;;;;;34.00;15.15;;;9.70;99.90;;;8.26;100.00;99442.91;4962330;28;20079;-80
2021/11/04 08:54:30;;;;;;;33.33;15.75;;;9.70;99.90;;;8.26;100.00;99438.50;4990284;28;20533;-80
2021/11/04 08:57:04;;;;;;;39.20;16.40;;;9.80;99.90;;;8.28;100.00;99434.00;4976163;28;20066;-81
2021/11/04 08:59:30;;;;;;;35.65;16.48;;;9.80;99.90;;;8.31;100.00;99726.72;4989358;28;20075;-80
2021/11/04 09:02:07;;;;;;;33.47;16.73;;;9.80;99.90;;;8.34;100.00;99842.00;5012843;28;20076;-81
2021/11/04 09:04:47;;;;;;;34.67;15.60;;;9.80;99.90;;;8.33;100.00;99765.06;4981283;28;20516;-80
2021/11/04 09:07:44;;;;;;;37.70;17.02;;;9.80;99.90;;;8.28;100.00;99661.34;4936221;28;20157;-83
2021/11/04 09:10:49;;;;;;;33.72;15.63;;;9.80;99.90;;;8.25;100.00;99762.00;5010624;28;20071;-82
2021/11/04 09:14:05;;;;;;;38.00;16.88;;;9.80;99.90;;;8.26;100.00;99742.72;4991830;28;20074;-80
2021/11/04 09:20:48;;;;;;;37.30;16.47;;;9.70;99.90;;;8.22;100.00;99731.53;5004533;28;20070;-81
2021/11/04 09:23:48;;;;;;;36.83;16.05;;;9.70;99.90;;;8.17;100.00;99728.31;4996361;28;22069;-80
2021/11/04 09:27:10;;;;;;;41.17;18.33;;;9.70;99.90;;;8.13;100.00;99713.66;4996536;28;20076;-80
2021/11/04 09:29:41;;;;;;;38.45;15.63;;;9.70;99.90;;;8.19;100.00;99713.34;5006171;28;20492;-81
2021/11/04 09:33:06;;;;;;;42.40;16.67;;;9.70;99.90;;;8.20;100.00;99708.94;4981004;28;20280;-81
2021/11/04 09:36:05;;;;;;;37.22;17.65;;;9.70;99.90;;;8.23;100.00;99700.91;4990889;28;20572;-81
2021/11/04 09:39:28;;;;;;;32.95;16.33;;;9.80;99.90;;;8.38;100.00;99707.09;4978605;28;20066;-81
2021/11/04 09:43:02;;;;;;;32.55;16.02;;;9.80;99.90;;;8.29;100.00;99687.47;5058220;28;20213;-80
2021/11/04 09:46:36;;;;;;;32.40;15.77;;;9.80;99.90;;;8.26;100.00;99674.53;5013675;28;20077;-80
2021/11/04 09:49:54;;;;;;;34.20;16.90;;;9.70;99.90;;;8.20;100.00;99659.09;4996383;28;20066;-81
2021/11/04 09:53:25;;;;;;;35.80;17.73;;;9.70;99.90;;;8.18;100.00;99655.72;5008026;28;20136;-81
2021/11/04 09:57:15;;;;;;;34.63;16.60;;;9.60;99.90;;;8.15;100.00;99646.25;4994605;28;20058;-80
2021/11/04 10:01:25;;;;;;;35.10;16.20;;;9.60;99.90;;;8.13;100.00;99660.38;5017717;28;20040;-81
2021/11/04 10:04:03;;;;;;;37.75;16.48;;;9.60;99.90;;;8.10;100.00;99650.91;4982616;28;20070;-81
2021/11/04 10:07:00;;;;;;;38.65;17.10;;;9.60;99.90;;;8.08;100.00;99651.88;4960530;28;20071;-81
2021/11/04 10:10:09;;;;;;;34.83;17.05;;;9.60;99.90;;;8.05;100.00;99652.91;5074475;28;20152;-81
2021/11/04 10:13:37;;;;;;;35.97;16.95;;;9.50;99.90;;;8.15;100.00;99655.91;5005423;28;20074;-81
2021/11/04 10:16:47;;;;;;;36.85;18.10;;;9.60;99.90;;;8.10;100.00;99632.56;5011412;28;20068;-81
2021/11/04 10:19:17;;;;;;;35.78;17.13;;;9.50;99.90;;;8.01;100.00;99610.31;4987485;28;20065;-81
2021/11/04 10:21:51;;;;;;;43.72;18.92;;;9.50;99.90;;;8.03;100.00;99602.34;5013430;28;20120;-81
2021/11/04 10:24:45;;;;;;;42.00;18.33;;;9.50;99.90;;;7.99;100.00;99588.56;4987449;28;20506;-81
2021/11/04 10:27:43;;;;;;;35.17;17.63;;;9.50;99.90;;;8.00;100.00;99579.75;4992632;28;20112;-81
2021/11/04 10:30:54;;;;;;;39.72;17.88;;;9.50;99.90;;;8.07;100.00;99579.44;4962514;28;20063;-81
2021/11/04 10:33:55;;;;;;;37.20;17.40;;;9.50;99.90;;;8.07;100.00;99568.94;5016373;28;20039;-81
2021/11/04 10:36:48;;;;;;;40.13;18.55;;;9.50;99.90;;;8.00;100.00;99566.66;5012757;28;20043;-80
2021/11/04 10:39:14;;;;;;;40.15;17.42;;;9.60;99.90;;;8.11;100.00;99573.09;5001198;28;20024;-81
2021/11/04 10:41:43;;;;;;;38.72;19.02;;;9.60;99.90;;;8.13;100.00;99561.56;4964300;28;20055;-81
2021/11/04 10:44:17;;;;;;;41.17;17.38;;;9.60;99.90;;;8.11;100.00;99552.13;5006072;28;20068;-81
2021/11/04 10:46:52;;;;;;;40.22;17.13;;;9.60;99.90;;;8.14;100.00;99544.06;4997465;28;20062;-81